LA MYTHIK YOLE - Club Tchimbé Raid le 04/02/2017

Recherche par Dossard : par Nom : par Club :

Place Dossard Nom Prenom Cat. Pl. Cat. Temps Club Sexe
1 625 MEYNIEUX Pierre henri SE 1 01:50:04 Golden Star M
2 866 GUENGANT Heathcliff V1 1 01:51:03 M
3 639 HAJJI Yahia V1 2 01:56:07 Golden star M
4 557 HENKART STEPHANE SE 2 01:57:59 MARINE Nationale M
5 714 MENS Frederic V2 1 02:01:23 Aiglon du Lamentin M
6 749 ATTIDORE Samuel SE 3 02:05:08 FJT Cycas M
7 860 FATNA David V1 3 02:07:20 M
8 665 LAMY Romuald V1 4 02:07:23 M
9 635 LANQUETIN Damien SE 4 02:09:49 M
10 760 ARTHUR Ludovic V1 5 02:10:49 M
11 616 ZALI Olivier V1 6 02:11:07 Golden Star M
12 681 REMY Bernard V1 7 02:12:38 M
13 628 BEAUSOLEIL Patrice V1 8 02:12:39 M
14 683 JUPITER Rodrigue V1 9 02:12:56 GOLDEN SATR M
15 753 DURAND ANTHONY SE 5 02:13:14 M
16 525 CROUZIL Fabrice V1 10 02:13:40 M
17 692 FEVRIER Jean SE 6 02:15:53 M
18 763 DUCATEZ Arnaud V1 11 02:16:55 M
19 670 MAALIKI Etienne SE 7 02:18:15 M
20 575 ADAM Antoine SE 8 02:18:16 M
21 832 MUCRET Bernard V1 12 02:19:09 TCHIMBE RAID M
22 723 CACLIN Nicolas SE 9 02:20:16 GOLDEN STAR M
23 837 GUILBERT Thomas SE 10 02:21:00 M
24 551 HO CAN SUNG Olivier SE 11 02:21:22 Golden Star M
25 750 BORVAL Joël V1 13 02:21:30 FJT Cycas M
26 673 BOULANGER Maelle SE 1 02:21:32 F
27 693 COMMAULT Keven SE 12 02:21:50 M
28 798 RINNA Vincent SE 13 02:22:25 1981 M
29 566 PINAT Cyril SE 14 02:22:28 M
30 643 MACARI Olivier V1 14 02:22:45 M
31 600 LEGLAND Benoit SE 15 02:25:00 club manikou M
32 666 GUERIN Cecile SE 2 02:25:02 F
33 803 BOYAVAL Jean Philippe V1 15 02:25:02 TCHIMBE RAID M
34 567 AUVE Nicolas V1 16 02:25:23 M
35 717 HEBERT Pierre SE 16 02:25:24 M
36 674 BRULE Sebastien SE 17 02:26:35 M
37 554 ERICHER CAMPO Johanna V1 1 02:26:36 F
38 862 BONNY Francois V1 17 02:27:08 M
39 720 PAULA Manuel V2 2 02:27:09 JC 231 M
40 790 LORENZINI Philippe V3 1 02:28:13 M
41 734 BOULOT BENOIT V2 3 02:28:14 STT M
42 682 HESOL David V1 18 02:28:43 AiglOn du Lamentin M
43 727 BELAY Marie Christine V1 2 02:28:47 FR MORNE PITAULT F
44 584 RAT Gael V1 19 02:29:29 M
45 605 MELKI Emile V1 20 02:30:28 Manikou M
46 506 COURTOIS Vincent V1 21 02:30:39 M
47 849 THOMASI José V3 2 02:31:23 FR MORNE PITAULT M
48 770 LAUMIER Alexis SE 18 02:32:03 M
49 662 NONONE Hubert V1 22 02:32:06 M
50 729 BASSET MENS Claudine V1 3 02:32:47 "L'Aiglon" F
51 650 ARZEL Mathilde SE 3 02:32:51 F
52 797 VALERE Christophe V1 23 02:32:52 M
53 597 RIAUX Anne SE 4 02:32:56 F
54 586 CLERICE Stephane SE 19 02:33:59 Jeuxclic.com M
55 764 HERODE Freddy SE 20 02:34:04 M
56 755 TEVENET SANDRINE V1 4 02:34:06 F
57 516 MORVAN Renaud V1 24 02:34:13 M
58 743 MERTON FREDERICK V1 25 02:34:35 M
59 689 CHARPENTIER Louis V2 4 02:34:40 MAIRIE SPORTIVE M
60 651 TOP Jerome SE 21 02:34:49 M
61 782 GIGON DESORMERIE Laurent ES 1 02:34:49 M
62 583 PITEL Jean baptiste SE 22 02:34:50 M
63 754 REUNIF PATRICK V1 26 02:35:22 M
64 658 GRAND Fabrice V1 27 02:35:48 M
65 550 CIDALISE MONTAISE Franck olivier V1 28 02:35:48 M
66 640 VERNIER Faustine SE 5 02:35:51 F
67 775 REYMOND Sébastien SE 23 02:36:03 M
68 761 CASAS Xavier SE 24 02:36:50 M
69 820 PIVERT Elie V1 29 02:36:51 M
70 752 DELPHIN Thierry V2 5 02:37:35 FJT Cycas M
71 809 JULIENO Charles V2 6 02:37:39 TCHIMBE RAID M
72 524 MARRAUD DES GROTTES Fabrice V1 30 02:38:34 M
73 739 MORVILLE JEAN LOUIS V1 31 02:38:56 M
74 865 JEAN GILLES Christèle V1 5 02:39:01 F
75 725 FORTUNE Frederic SE 25 02:39:02 M
76 859 CHASSERIAU Romeo SE 26 02:39:36 M
77 699 ROUX Sebastien V1 32 02:39:37 M
78 664 BEUZE Lionel SE 27 02:40:16 M
79 731 LAMBOURG Marion SE 6 02:40:37 F
80 543 STANISLAWEK Yannick SE 28 02:40:52 M
81 733 MENIR Bernard V1 33 02:41:28 M
82 812 AMPHARES Yannis V1 34 02:41:55 Rénovation de Haugrin M
83 695 ROSE Raymond V2 7 02:41:56 CGOSH M
84 657 TEPAUT Michel SE 29 02:42:03 M
85 621 VETRAL Eric V2 8 02:42:05 HYPERU M
86 558 ABGUILLERM Florent V2 9 02:42:09 MARINE Nationale M
87 825 PICHI MANUEL V1 35 02:42:19 ASC SARA M
88 663 ARICAT Rose adele SE 7 02:42:23 F
89 769 LADAN Michel V1 36 02:42:33 M
90 677 BERNARD Jerome SE 30 02:42:47 M
91 759 AUSTER Xavier V1 37 02:43:11 TCHIMBE RAID M
92 785 DUFRAISSE Jean marie V1 38 02:43:32 TEAM BABYLON M
93 638 TELCIDE Christian V3 3 02:43:32 M
94 843 MARCHESI Yoan SE 31 02:43:50 M
95 607 CAZASSUS BERARD Jeanne V1 6 02:45:31 Avenir Péléen F
96 614 RALAISOMAY Natacha SE 8 02:45:31 F
97 768 KHUONG Gilles V1 39 02:45:39 M
98 735 ROUBLIQUE HUBERT V1 40 02:45:47 CLUB TCHIMBERAID M
99 579 GARCIA Herve V1 41 02:46:16 M
100 778 VIALETTE Jérôme SE 32 02:46:46 M
101 791 GOUNOUMAN Claude V3 4 02:46:53 AMCF M
102 698 ROUX Florence SE 9 02:46:59 F
103 594 DEMOGEOT Gilles V1 42 02:47:07 M
104 517 SCHALLER Emilie SE 10 02:48:38 F
105 691 BOULANGE Jean christophe SE 33 02:48:48 M
106 679 CHAMMAS Mathieu SE 34 02:48:56 M
107 581 MARQUES Andre V4 1 02:49:33 M
108 816 LIGUORI Louis Antoine V2 10 02:49:50 20/01/2017 M
109 580 GALLET DE SAINT AURIN Leonard SE 35 02:50:04 La Medicale M
110 513 ORVILLE Laurent SE 36 02:50:21 M
111 856 MORTON Jean Michel V1 43 02:51:20 M
112 601 MARAJO Celine SE 11 02:51:47 F
113 742 PANCALDI MARIE GEORGES V2 1 02:51:53 MANIKOU F
114 794 MONIER Gregory SE 37 02:52:36 Golden Star M
115 751 VENGETO Bernard V2 11 02:52:44 FJT Cycas M
116 637 RENEAUME Francois V1 44 02:53:50 M
117 589 URSULET Harry SE 38 02:54:00 golden star M
118 678 GENTIL Celine SE 12 02:54:06 F
119 587 VOITUS Donry SE 39 02:54:26 M
120 806 QUIQUELY Désir V2 12 02:54:44 TCHIMBE RAID/ASRFO972 M
121 805 BOZIN Fabrice V1 45 02:54:44 TCHIMBE RAID/ASRFO972 M
122 746 HACHIMI NADIA V1 7 02:54:47 F
123 745 FERDINAND PATRICK V2 13 02:54:47 M
124 555 LAVILLE Karine V1 8 02:55:12 Manikoi F
125 649 CABRERA Honorine SE 13 02:55:22 cslg course a pied F
126 728 JUBENOT Carole V1 9 02:55:22 Avenir peleen F
127 507 AUFFAY Lionel V1 46 02:55:31 M
128 634 THIMON Ely V2 14 02:55:32 M
129 786 AGNOLY Marc V2 15 02:55:51 PRODRONE 360 M
130 772 METZ Stephan V1 47 02:56:01 M
131 565 CATAYEE Marie noelle V2 2 02:56:03 F
132 606 SBRIZZI Frederic V1 48 02:56:12 M
133 834 ARAUJO Georges V1 49 02:56:13 Trois Ilets Rugby Club M
134 824 SEVELE Jean Christophe SE 40 02:56:29 M
135 629 CHAMIOT Marion SE 14 02:56:34 PLIO F
136 724 LEFEBVRE Herve V1 50 02:56:42 M
137 807 TAUZIA Muriel V2 3 02:58:47 TCHIMBE RAID/ASRFO972 F
138 811 CAUPENNE Hervey MI 1 03:00:12 Cyclo Club Samaritain M
139 718 DORMEAU Katia V1 10 03:00:16 F
140 500 LOUPIAS Tristan SE 41 03:00:26 Club Manikou M
141 766 HUGON William V1 51 03:00:32 M
142 795 MIDELTON Stephanie SE 15 03:00:37 F
143 536 BARTHE Elisabeth SE 16 03:00:51 Golden Star F
144 694 STIVAL Jerome SE 42 03:01:12 M
145 632 MOREL Claudine V1 11 03:01:15 cslg martinique F
146 633 MOREL Cyrille V1 52 03:01:16 cslg martinique M
147 680 DARMANTE Carine SE 17 03:01:30 "pli'o FFME" F
148 851 LOSTAU Laurence SE 18 03:02:06 GOLDEN STAR F
149 590 AUBERT Alexandre V1 53 03:02:32 M
150 687 MAREL Vanessa SE 19 03:02:59 Run972 F
151 719 LARCHER Johann V1 54 03:03:32 M
152 815 FLEZ Jean François V2 16 03:03:32 20/01/2017 M
153 588 SAUVAGNAC Betty V1 12 03:03:50 F
154 787 TALMANN Andre V4 2 03:03:50 tchimbe raid M
155 619 EUSTACHE Audrey SE 20 03:04:54 F
156 659 DISPAGNE Gregory SE 43 03:04:57 M
157 771 MESSMER Régis V1 55 03:05:45 M
158 861 FRANCEZON Laura SE 21 03:05:53 F
159 857 GARCIAN ROUSSELLE Delphine SE 22 03:06:29 F
160 592 GARCIAN Sylvain V1 56 03:06:30 M
161 585 THEVENIN Raphael V1 57 03:06:32 M
162 577 LE CESNE Augustin SE 44 03:06:34 M
163 646 VICTOR Daniel V2 17 03:06:37 M
164 777 SATIN Fabrice SE 45 03:06:52 M
165 810 ZAMUNER Karine V1 13 03:06:59 Les Bourrasques Baroussaises F
166 688 AURRY Sylvain V2 18 03:07:02 Manikou M
167 676 LOUIS MARIE Christian V1 58 03:07:18 M
168 831 GUISSET Pascale V2 4 03:08:10 MANIKOU F
169 532 BEAUCHESNE Mathilde SE 23 03:08:12 F
170 549 CIDALISE MONTAISE Sandra V1 14 03:08:23 FFSE F
171 784 BAZABAS Neferti V1 15 03:08:25 F
172 661 LEVALLOIS Claire SE 24 03:08:26 Team INTERSPORT F
173 685 VELAYOUDON Audray V1 16 03:08:38 F
174 684 VELAYOUDON Charles V1 59 03:08:38 M
175 562 BIANCHI Vincent SE 46 03:08:40 M
176 548 RAYMOND Guillaume V1 60 03:09:33 pass running M
177 647 DEBES Didier V1 61 03:09:46 M
178 648 DEBES Sandrine V1 17 03:09:46 F
179 573 BAC Laetitia SE 25 03:10:30 F
180 780 LELANDAIS Helene SE 26 03:11:00 aucun F
181 779 GHILAIN Samuel SE 47 03:11:00 Année M
182 758 BROIE FRANCK V1 62 03:11:08 M
183 732 LOUISON Jean michel V1 63 03:11:57 M
184 774 RANO Mylène SE 27 03:12:06 F
185 776 ROUSSEL Jean Pierre V1 64 03:12:06 M
186 814 CLEMENT Nathalie V1 18 03:12:11 TCHIMBE RAID F
187 783 RIVIERE Cedric SE 48 03:12:12 TEAM BABILON M
188 534 PHILEMONT MONTOUT Myriam SE 28 03:12:43 F
189 789 GIACOMETTI Jacques V3 5 03:12:44 M
190 736 PARTY CHRISTELLE SE 29 03:13:09 F
191 561 PRECART Gregory SE 49 03:13:10 M
192 611 HOULIER Eglantine V1 19 03:13:19 F
193 501 BOURGEOIS Loic SE 50 03:13:38 M
194 748 MARTIAL JOSE V2 19 03:13:52 CLUB TCHIMBERAID M
195 540 LETOURNEAUX Aurelie SE 30 03:13:52 F
196 533 BAYEMI Jean claude SE 51 03:14:17 M
197 541 ZOZIME Marie nelly V1 20 03:14:18 SAM HORIZON 2000 F
198 700 CAZENAVE Gilles SE 52 03:14:24 Gilles CAZENAVE M
199 622 ZAMY Sonia V2 5 03:14:26 mairie sportive F
200 707 AGNIFILI Annalisa SE 31 03:14:32 F
201 612 COLAS Laurent V1 65 03:14:33 M
202 826 MIRANDE Jean Luc V1 66 03:15:36 asc SARA M
203 603 DEHENRY Myriam V2 6 03:15:39 CLUB MANIKOU F
204 653 BLAND MURCIANO Laetitia V1 21 03:15:54 Club Manikou F
205 675 HELOISE Sylvestre V2 20 03:16:23 M
206 756 JOSEPH JULIEN ES 2 03:17:58 M
207 578 ESTIENNE GARCIA Christel V1 22 03:18:32 F
208 538 VALVERDE Rachel V1 23 03:18:32 F
209 697 MELINARD Harold SE 53 03:18:36 M
210 840 LAYEUX Sophia V1 24 03:20:06 FR MORNE PITAULT F
211 514 LOTAUT Beatrice V1 25 03:20:40 CLUB MANIKOU F
212 645 LECOMTE Gaelle V1 26 03:20:45 F
213 508 PAGEAUD Anne Cecile V1 27 03:20:51 F
214 757 BOUCON ALEXANDRE SE 54 03:20:58 M
215 552 JEAN BAPTISTE Gisele V3 1 03:21:03 club tchimbé raid F
216 512 GUITTON Dominique V1 67 03:21:24 M
217 656 CORNAILLE Sophie V1 28 03:21:34 F
218 610 FLOERSHEIM Mathilde V1 29 03:22:38 F
219 609 VILO David V2 21 03:22:38 "les Pirates de l'anse Madame" M
220 850 VILLAGEOIS Marie Louise V2 22 03:22:40 FR MORNE PITAULT M
221 767 JEAUMOT Ludovic SE 55 03:24:19 M
222 696 MELINARD Edwige SE 32 03:24:20 F
223 539 RIMBAUD Michel V3 6 03:24:25 M
224 701 JULIUS Karine SE 33 03:25:16 Manikou F
225 560 MOLLET Francois guillaume SE 56 03:25:38 MARINE Nationale M
226 519 BOUE Pascaline SE 34 03:26:10 F
227 617 BARBIER Florent V1 68 03:26:38 M
228 522 SAINT ZEBY Stella SE 35 03:26:39 golden star F
229 737 TRINDADE MICHEL V2 23 03:26:44 M
230 839 HIRSON Emmannuelle SE 36 03:27:16 F
231 836 GROSMORT Olivier V1 69 03:27:16 M
232 813 RIAM Frantz V1 70 03:27:18 TCHIMBE RAID M
233 530 MERLIN Aurelie V1 30 03:27:21 F
234 576 LOUIS MONTHIEUX Astrid V1 31 03:27:25 SPS TEAM / MANIKOU F
235 855 RUSTI Marie noelle V3 2 03:27:42 F
236 854 MANGIN Florence V1 32 03:27:50 F
237 537 GALLET DE SAINT AURIN Christophe V1 71 03:27:52 M
238 852 PAUL JOSEPH Sandrine V1 33 03:27:58 GOLDEN STAR F
239 706 PAPANEAU Catherine V2 7 03:27:58 F
240 571 WEBER Alain V1 72 03:28:03 M
241 553 GERMACK Jacqueline V3 3 03:28:06 AIGLONS F
242 845 PAVIUS Anne Laure V1 34 03:28:13 F
243 863 NEBOUT Alain V2 24 03:28:14 M
244 641 OVARBURY Elodie SE 37 03:28:15 F
245 740 ABSALON ELISABETH V1 35 03:28:41 TCHIMBERAID BAROUDEURS F
246 602 BODROS Isabelle V1 36 03:28:44 F
247 515 CHATOT HENRY Carole V2 8 03:29:32 F
248 821 LACROIX MUNOZ Francisca SE 38 03:29:32 F
249 827 CHATELOT Marie SE 39 03:29:39 asc sara F
250 644 CHRISTIAENS Yvanne SE 40 03:30:49 club colonial F
251 660 LERIDER Myriam V1 37 03:31:14 F
252 604 JACOBIERE Henri V3 7 03:31:15 CTR M
253 829 ROMANA Zeline SE 41 03:31:35 F
254 726 HENRI Elodie SE 42 03:31:45 F
255 596 JEAN PHILIPPE Arthur V1 73 03:32:09 M
256 788 MEDLOCK Maeva SE 43 03:32:20 F
257 741 ANGEVIN ANNICK V1 38 03:32:21 MANIKOU F
258 523 BALDARA MARIMOUTOU Beatrice V1 39 03:32:21 F
259 626 ST LOUIS AUGUSTIN NEE MARIO Chrystel SE 44 03:32:51 MAIRIE SPORTIVE F
260 703 MORJON David V1 74 03:32:52 mairie sportive M
261 722 BAUMGART Celine V1 40 03:33:06 F
262 721 BAUMGART Raphael V1 75 03:33:06 M
263 716 JORET Celine V1 41 03:33:20 squale club F
264 672 FERCOT Adelaide SE 45 03:33:44 golden star F
265 599 CORIDON Herve SE 57 03:33:49 M
266 773 PEYRE Hervé V2 25 03:33:57 M
267 792 SYLVESTRE Valerie V1 42 03:34:05 F
268 572 WEBER Severine V1 43 03:35:25 F
269 864 LEBLANC Nicolas SE 58 03:36:20 M
270 833 VICTORIN Renée Rose Ange V2 9 03:36:22 MANIKOU / TLT972 F
271 848 TAREAU Karine V1 44 03:37:04 F
272 613 COLAS Celine V1 45 03:37:06 F
273 528 RICHEUX Laure V1 46 03:37:25 Club manikou F
274 642 OVARBURY Jean baptiste SE 59 03:38:29 M
275 842 LUDOSKY Michèle V2 10 03:39:09 TCHIMBE RAID F
276 591 AUBERT Gaelle V1 47 03:39:20 F
277 781 GENTIL Albert V1 76 03:39:24 non M
278 620 MONCI Franceline V2 11 03:39:28 MANIKOU ORGANISATION F
279 518 SYMPHOR Xavier V1 77 03:39:29 M
280 765 HUEZ Thomas SE 60 03:39:33 M
281 715 LAGIER Daniel V1 78 03:39:36 M
282 623 ROUSSIE Arnaud SE 61 03:40:40 squale club M
283 624 ROUSSIE Martial V3 8 03:40:43 M
284 526 LOISEL Michel V1 79 03:41:00 Team intersport M
285 531 FONTANET Clement SE 62 03:41:00 M
286 563 TANDAVARAYEN Viviane V3 4 03:41:23 F
287 544 NOEMI Sandrine V1 48 03:42:21 F
288 667 ROMAND Guetty V2 12 03:42:32 F
289 709 AMBROISINE Jean loic V1 80 03:42:32 M
290 521 MONDONNEIX Veronique V3 5 03:42:41 F
291 520 LIGUORI Geraldine V1 49 03:42:42 F
292 527 DALLE Cecile V1 50 03:43:17 F
293 529 KELLER Olivier V1 81 03:43:17 M
294 570 MAILLET Eric V2 26 03:44:02 M
295 796 PERRIER Audrey SE 46 03:44:02 F
296 710 VAXELAIRE Capucine V1 51 03:44:47 F
297 669 BENMERZOUG Sarah SE 47 03:44:51 F
298 598 FRANCOIS CORIDON Helene V1 52 03:45:19 F
299 846 ROSALIE Jean Michel V1 82 03:46:42 M
300 853 AUFFAY Sandrine V1 53 03:49:23 F
301 858 LARGEN Gerard V1 83 03:51:24 M
302 564 TANDAVARAYEN Emmanuel V3 9 03:51:26 M
303 568 MAILLET Sylvie V1 54 03:52:08 F
304 838 HADDAD – FANON Ann – Emmannuelle SE 48 03:52:09 F
305 844 MARIE – SAINTE David V1 84 03:54:18 FR MORNE PITAULT M
306 868 ?Dossard #868 SE 63 03:55:06 M
307 705 SABIN Joel SE 64 03:55:33 M
308 847 SAINT LOUIS AUGUSTIN Irène V3 6 03:55:58 F
309 802 BONNETETE Bérangère V1 55 03:56:38 MANIKOU F
310 817 SILBANDE Adèle SE 49 03:56:38 20/01/2017 F
311 818 LACROSSE Karyn V1 56 03:57:57 10/10/2016 F
312 819 LUXIN Lucile V1 57 03:57:57 TCHIMBE RAID F
313 793 ELIZABETH FLORA Rebecca SE 50 03:58:39 F
314 835 GRADUEL Isabelle V2 13 03:59:09 Manikou/TchimbéRaid/ Sam H F
315 744 CINNA MIREILLE V1 58 04:03:51 SAM HORIZON F
316 730 ANGELY Suzy V2 14 04:03:52 manikou F
317 799 RAMANICH Jessica SE 51 04:03:52 F
318 671 CACLIN Melissa SE 52 04:03:52 F
319 593 VAUDELIN Virginie carole V1 59 04:05:24 F
320 535 CACLIN Gabrielle SE 53 04:05:33 F
321 547 GROS DESORMEAUX Claudine V2 15 04:05:33 F
322 627 MAYENOBE Sebastien V1 85 04:06:30 M
323 502 LECOCQ Antoine SE 65 04:09:14 M
324 712 VANITOU NUBIEN Philippe V2 27 04:09:14 M
325 738 CLEMENT MARIE FRANCE V2 16 04:11:45 MANIKOU F
326 503 AGNES Ludovic SE 66 04:12:23 M
327 505 COUDRAY Ophelie SE 54 04:12:23 F
328 504 ELUECQUE Eric V1 86 04:12:23 Team trai ventose M
329 686 BONFEUILLE Chantal V2 17 04:13:26 F
330 631 SEURIN Claire V1 60 04:15:47 F
331 636 KOURY Irina SE 55 04:20:56 F
332 708 ICHOUA Sandra SE 56 04:26:31 F
333 556 DEFERT Gilles V2 28 04:26:32 GOLDEN STAR M
334 747 MUDARD CORINE V1 61 04:41:16 F
335 668 PITEL Jean marie V3 10 04:41:16 M
336 655 MANCIET FILADELFIA Indiana V2 18 04:45:24 F
337 654 FILADELFIA Philippe V3 11 04:45:28 M
338 704 GIARD Delphine V1 62 04:50:15 F
339 762 CHATAIGNER Christian V2 29 05:00:17 M
340 509 ROLLET Florence V1 63 05:01:50 F
341 511 MOLYNEAUX BEALE Victoria V1 64 05:01:50 F
342 510 FONTENIAUD Mari SE 57 05:01:50 F
343 823 EGOUY Marie – Karine SE 58 05:05:04 F
344 822 LIBER Vanessa SE 59 05:05:10 F
345 841 LOBAS Dominique V1 65 06:13:45 MANIKOU / TLT972 F